sensor_id;sensor_type;location;lat;lon;timestamp;P1;durP1;ratioP1;P2;durP2;ratioP2
80910;SDS011;70359;51.420;7.032;2023-12-20T00:02:06;6.5;;;5.4;;
80910;SDS011;70359;51.420;7.032;2023-12-20T00:04:31;6.5;;;5.4;;
80910;SDS011;70359;51.420;7.032;2023-12-20T00:06:56;8.3;;;6;;
80910;SDS011;70359;51.420;7.032;2023-12-20T00:09:21;8.3;;;6;;
80910;SDS011;70359;51.420;7.032;2023-12-20T00:11:50;6.2;;;5.5;;
80910;SDS011;70359;51.420;7.032;2023-12-20T00:14:15;6.2;;;5.5;;
80910;SDS011;70359;51.420;7.032;2023-12-20T00:16:36;9.4;;;6.1;;
80910;SDS011;70359;51.420;7.032;2023-12-20T00:19:01;9.4;;;6.1;;
80910;SDS011;70359;51.420;7.032;2023-12-20T00:21:26;7.7;;;5.5;;
80910;SDS011;70359;51.420;7.032;2023-12-20T00:23:51;7.7;;;5.5;;
80910;SDS011;70359;51.420;7.032;2023-12-20T00:26:16;6.3;;;4.7;;
80910;SDS011;70359;51.420;7.032;2023-12-20T00:28:41;6.3;;;4.7;;
80910;SDS011;70359;51.420;7.032;2023-12-20T00:31:06;6.1;;;4.6;;
80910;SDS011;70359;51.420;7.032;2023-12-20T00:33:31;6.1;;;4.6;;
80910;SDS011;70359;51.420;7.032;2023-12-20T00:35:56;6.1;;;4.6;;
80910;SDS011;70359;51.420;7.032;2023-12-20T00:38:21;6.4;;;5.1;;
80910;SDS011;70359;51.420;7.032;2023-12-20T00:40:46;6.4;;;5.1;;
80910;SDS011;70359;51.420;7.032;2023-12-20T00:43:11;5.8;;;4.8;;
80910;SDS011;70359;51.420;7.032;2023-12-20T00:45:40;5.8;;;4.8;;
80910;SDS011;70359;51.420;7.032;2023-12-20T00:48:01;6.2;;;4.5;;
80910;SDS011;70359;51.420;7.032;2023-12-20T00:50:26;6.2;;;4.5;;
80910;SDS011;70359;51.420;7.032;2023-12-20T00:52:51;5.5;;;4.4;;
80910;SDS011;70359;51.420;7.032;2023-12-20T00:55:20;5.5;;;4.4;;
80910;SDS011;70359;51.420;7.032;2023-12-20T00:57:45;5.9;;;4.1;;
80910;SDS011;70359;51.420;7.032;2023-12-20T01:00:06;5.9;;;4.1;;
80910;SDS011;70359;51.420;7.032;2023-12-20T01:02:31;5.1;;;4.1;;
80910;SDS011;70359;51.420;7.032;2023-12-20T01:04:56;5.1;;;4.1;;
80910;SDS011;70359;51.420;7.032;2023-12-20T01:07:21;5.1;;;3.7;;
80910;SDS011;70359;51.420;7.032;2023-12-20T01:09:46;5.1;;;3.7;;
80910;SDS011;70359;51.420;7.032;2023-12-20T01:12:11;6;;;3.6;;
80910;SDS011;70359;51.420;7.032;2023-12-20T01:14:40;6;;;3.6;;
80910;SDS011;70359;51.420;7.032;2023-12-20T01:17:01;4.4;;;3.3;;
80910;SDS011;70359;51.420;7.032;2023-12-20T01:19:26;4.4;;;3.3;;
80910;SDS011;70359;51.420;7.032;2023-12-20T01:21:51;6.5;;;3.5;;
80910;SDS011;70359;51.420;7.032;2023-12-20T01:24:16;6.5;;;3.5;;
80910;SDS011;70359;51.420;7.032;2023-12-20T01:26:45;7.7;;;3.3;;
80910;SDS011;70359;51.420;7.032;2023-12-20T01:29:06;7.7;;;3.3;;
80910;SDS011;70359;51.420;7.032;2023-12-20T01:31:35;3.2;;;2.8;;
80910;SDS011;70359;51.420;7.032;2023-12-20T01:33:56;3.2;;;2.8;;
80910;SDS011;70359;51.420;7.032;2023-12-20T01:36:21;3.6;;;2.9;;
80910;SDS011;70359;51.420;7.032;2023-12-20T01:38:50;3.6;;;2.9;;
80910;SDS011;70359;51.420;7.032;2023-12-20T01:41:11;3.6;;;2.9;;
80910;SDS011;70359;51.420;7.032;2023-12-20T01:43:40;3.6;;;2.9;;
80910;SDS011;70359;51.420;7.032;2023-12-20T01:46:01;3.6;;;2.9;;
80910;SDS011;70359;51.420;7.032;2023-12-20T01:48:27;4.1;;;3.3;;
80910;SDS011;70359;51.420;7.032;2023-12-20T01:50:55;4.1;;;3.3;;
80910;SDS011;70359;51.420;7.032;2023-12-20T01:53:21;6.1;;;3.9;;
80910;SDS011;70359;51.420;7.032;2023-12-20T01:55:42;6.1;;;3.9;;
80910;SDS011;70359;51.420;7.032;2023-12-20T01:58:06;4.6;;;3.6;;
80910;SDS011;70359;51.420;7.032;2023-12-20T02:00:31;4.6;;;3.6;;
80910;SDS011;70359;51.420;7.032;2023-12-20T02:02:58;4.2;;;3.4;;
80910;SDS011;70359;51.420;7.032;2023-12-20T02:05:21;4.2;;;3.4;;
80910;SDS011;70359;51.420;7.032;2023-12-20T02:07:46;4.2;;;3.4;;
80910;SDS011;70359;51.420;7.032;2023-12-20T02:10:11;4.2;;;3.4;;
80910;SDS011;70359;51.420;7.032;2023-12-20T02:12:36;4.4;;;3.5;;
80910;SDS011;70359;51.420;7.032;2023-12-20T02:15:01;4.4;;;3.5;;
80910;SDS011;70359;51.420;7.032;2023-12-20T02:17:27;3.2;;;2.6;;
80910;SDS011;70359;51.420;7.032;2023-12-20T02:19:51;3.2;;;2.6;;
80910;SDS011;70359;51.420;7.032;2023-12-20T02:22:16;3.1;;;2.4;;
80910;SDS011;70359;51.420;7.032;2023-12-20T02:24:41;3.1;;;2.4;;
80910;SDS011;70359;51.420;7.032;2023-12-20T02:27:07;4.1;;;2.4;;
80910;SDS011;70359;51.420;7.032;2023-12-20T02:29:32;4.1;;;2.4;;
80910;SDS011;70359;51.420;7.032;2023-12-20T02:31:56;3.8;;;2.6;;
80910;SDS011;70359;51.420;7.032;2023-12-20T02:34:21;3.8;;;2.6;;
80910;SDS011;70359;51.420;7.032;2023-12-20T02:36:46;6.1;;;2.8;;
80910;SDS011;70359;51.420;7.032;2023-12-20T02:39:11;6.1;;;2.8;;
80910;SDS011;70359;51.420;7.032;2023-12-20T02:41:36;3.4;;;3.1;;
80910;SDS011;70359;51.420;7.032;2023-12-20T02:44:01;3.4;;;3.1;;
80910;SDS011;70359;51.420;7.032;2023-12-20T02:46:26;4.2;;;2.8;;
80910;SDS011;70359;51.420;7.032;2023-12-20T02:48:51;4.2;;;2.8;;
80910;SDS011;70359;51.420;7.032;2023-12-20T02:51:16;4.7;;;3.1;;
80910;SDS011;70359;51.420;7.032;2023-12-20T02:53:41;4.7;;;3.1;;
80910;SDS011;70359;51.420;7.032;2023-12-20T02:56:06;2.7;;;2.4;;
80910;SDS011;70359;51.420;7.032;2023-12-20T02:58:31;2.7;;;2.4;;
80910;SDS011;70359;51.420;7.032;2023-12-20T03:00:56;2.7;;;2.4;;
80910;SDS011;70359;51.420;7.032;2023-12-20T03:03:21;3.2;;;2.4;;
80910;SDS011;70359;51.420;7.032;2023-12-20T03:05:46;3.2;;;2.4;;
80910;SDS011;70359;51.420;7.032;2023-12-20T03:08:11;2.6;;;2.4;;
80910;SDS011;70359;51.420;7.032;2023-12-20T03:10:36;2.6;;;2.4;;
80910;SDS011;70359;51.420;7.032;2023-12-20T03:13:01;3.4;;;2.6;;
80910;SDS011;70359;51.420;7.032;2023-12-20T03:15:26;3.4;;;2.6;;
80910;SDS011;70359;51.420;7.032;2023-12-20T03:17:51;5.1;;;2.6;;
80910;SDS011;70359;51.420;7.032;2023-12-20T03:20:16;5.1;;;2.6;;
80910;SDS011;70359;51.420;7.032;2023-12-20T03:22:45;7.9;;;2.4;;
80910;SDS011;70359;51.420;7.032;2023-12-20T03:25:06;7.9;;;2.4;;
80910;SDS011;70359;51.420;7.032;2023-12-20T03:27:31;4.4;;;3.1;;
80910;SDS011;70359;51.420;7.032;2023-12-20T03:29:56;4.4;;;3.1;;
80910;SDS011;70359;51.420;7.032;2023-12-20T03:32:21;3.1;;;2.6;;
80910;SDS011;70359;51.420;7.032;2023-12-20T03:34:50;3.1;;;2.6;;
80910;SDS011;70359;51.420;7.032;2023-12-20T03:37:11;2.8;;;2.2;;
80910;SDS011;70359;51.420;7.032;2023-12-20T03:39:40;2.8;;;2.2;;
80910;SDS011;70359;51.420;7.032;2023-12-20T03:42:05;4.3;;;2.3;;
80910;SDS011;70359;51.420;7.032;2023-12-20T03:44:26;4.3;;;2.3;;
80910;SDS011;70359;51.420;7.032;2023-12-20T03:46:51;2.7;;;2;;
80910;SDS011;70359;51.420;7.032;2023-12-20T03:49:20;2.7;;;2;;
80910;SDS011;70359;51.420;7.032;2023-12-20T03:51:41;4.4;;;2.5;;
80910;SDS011;70359;51.420;7.032;2023-12-20T03:54:06;4.4;;;2.5;;
80910;SDS011;70359;51.420;7.032;2023-12-20T03:56:31;2.2;;;2;;
80910;SDS011;70359;51.420;7.032;2023-12-20T03:58:56;2.2;;;2;;
80910;SDS011;70359;51.420;7.032;2023-12-20T04:01:21;2.9;;;1.9;;
80910;SDS011;70359;51.420;7.032;2023-12-20T04:03:46;2.9;;;1.9;;
80910;SDS011;70359;51.420;7.032;2023-12-20T04:06:16;3.9;;;2;;
80910;SDS011;70359;51.420;7.032;2023-12-20T04:08:36;3.9;;;2;;
80910;SDS011;70359;51.420;7.032;2023-12-20T04:11:01;3.9;;;2;;
80910;SDS011;70359;51.420;7.032;2023-12-20T04:13:26;4.2;;;2.2;;
80910;SDS011;70359;51.420;7.032;2023-12-20T04:15:51;4.2;;;2.2;;
80910;SDS011;70359;51.420;7.032;2023-12-20T04:18:16;3.9;;;2.4;;
80910;SDS011;70359;51.420;7.032;2023-12-20T04:20:42;3.9;;;2.4;;
80910;SDS011;70359;51.420;7.032;2023-12-20T04:23:06;2.1;;;1.9;;
80910;SDS011;70359;51.420;7.032;2023-12-20T04:25:32;2.1;;;1.9;;
80910;SDS011;70359;51.420;7.032;2023-12-20T04:27:56;4.8;;;2.6;;
80910;SDS011;70359;51.420;7.032;2023-12-20T04:30:21;4.8;;;2.6;;
80910;SDS011;70359;51.420;7.032;2023-12-20T04:32:46;3.3;;;2.3;;
80910;SDS011;70359;51.420;7.032;2023-12-20T04:35:11;3.3;;;2.3;;
80910;SDS011;70359;51.420;7.032;2023-12-20T04:37:36;3.7;;;2.4;;
80910;SDS011;70359;51.420;7.032;2023-12-20T04:40:01;3.7;;;2.4;;
80910;SDS011;70359;51.420;7.032;2023-12-20T04:42:26;3.6;;;2.3;;
80910;SDS011;70359;51.420;7.032;2023-12-20T04:44:51;3.6;;;2.3;;
80910;SDS011;70359;51.420;7.032;2023-12-20T04:47:16;4.2;;;2.5;;
80910;SDS011;70359;51.420;7.032;2023-12-20T04:49:41;4.2;;;2.5;;
80910;SDS011;70359;51.420;7.032;2023-12-20T04:52:10;7.4;;;2.7;;
80910;SDS011;70359;51.420;7.032;2023-12-20T04:54:35;7.4;;;2.7;;
80910;SDS011;70359;51.420;7.032;2023-12-20T04:57:00;3.6;;;2.5;;
80910;SDS011;70359;51.420;7.032;2023-12-20T04:59:21;3.6;;;2.5;;
80910;SDS011;70359;51.420;7.032;2023-12-20T05:01:46;3.2;;;2.5;;
80910;SDS011;70359;51.420;7.032;2023-12-20T05:04:11;3.2;;;2.5;;
80910;SDS011;70359;51.420;7.032;2023-12-20T05:06:36;2.5;;;2.3;;
80910;SDS011;70359;51.420;7.032;2023-12-20T05:09:01;2.5;;;2.3;;
80910;SDS011;70359;51.420;7.032;2023-12-20T05:11:26;2.6;;;2.3;;
80910;SDS011;70359;51.420;7.032;2023-12-20T05:13:54;2.6;;;2.3;;
80910;SDS011;70359;51.420;7.032;2023-12-20T05:16:16;3.9;;;2.7;;
80910;SDS011;70359;51.420;7.032;2023-12-20T05:18:41;3.9;;;2.7;;
80910;SDS011;70359;51.420;7.032;2023-12-20T05:21:06;4;;;2.7;;
80910;SDS011;70359;51.420;7.032;2023-12-20T05:23:31;4;;;2.7;;
80910;SDS011;70359;51.420;7.032;2023-12-20T05:26:00;4;;;2.7;;
80910;SDS011;70359;51.420;7.032;2023-12-20T05:28:25;7.8;;;3.6;;
80910;SDS011;70359;51.420;7.032;2023-12-20T05:30:46;7.8;;;3.6;;
80910;SDS011;70359;51.420;7.032;2023-12-20T05:33:11;3.7;;;3;;
80910;SDS011;70359;51.420;7.032;2023-12-20T05:35:36;3.7;;;3;;
80910;SDS011;70359;51.420;7.032;2023-12-20T05:38:01;3.9;;;2.9;;
80910;SDS011;70359;51.420;7.032;2023-12-20T05:40:26;3.9;;;2.9;;
80910;SDS011;70359;51.420;7.032;2023-12-20T05:42:51;3.2;;;2.9;;
80910;SDS011;70359;51.420;7.032;2023-12-20T05:45:20;3.2;;;2.9;;
80910;SDS011;70359;51.420;7.032;2023-12-20T05:47:41;6.7;;;2.8;;
80910;SDS011;70359;51.420;7.032;2023-12-20T05:50:07;6.7;;;2.8;;
80910;SDS011;70359;51.420;7.032;2023-12-20T05:52:31;4.1;;;2.6;;
80910;SDS011;70359;51.420;7.032;2023-12-20T05:54:56;4.1;;;2.6;;
80910;SDS011;70359;51.420;7.032;2023-12-20T05:57:21;4.4;;;2.8;;
80910;SDS011;70359;51.420;7.032;2023-12-20T05:59:46;4.4;;;2.8;;
80910;SDS011;70359;51.420;7.032;2023-12-20T06:02:11;5;;;3;;
80910;SDS011;70359;51.420;7.032;2023-12-20T06:04:40;5;;;3;;
80910;SDS011;70359;51.420;7.032;2023-12-20T06:07:02;3.4;;;2.2;;
80910;SDS011;70359;51.420;7.032;2023-12-20T06:09:27;3.4;;;2.2;;
80910;SDS011;70359;51.420;7.032;2023-12-20T06:11:55;5.2;;;2.8;;
80910;SDS011;70359;51.420;7.032;2023-12-20T06:14:16;5.2;;;2.8;;
80910;SDS011;70359;51.420;7.032;2023-12-20T06:16:41;7.6;;;2.5;;
80910;SDS011;70359;51.420;7.032;2023-12-20T06:19:06;7.6;;;2.5;;
80910;SDS011;70359;51.420;7.032;2023-12-20T06:21:31;4.1;;;2.6;;
80910;SDS011;70359;51.420;7.032;2023-12-20T06:23:58;4.1;;;2.6;;
80910;SDS011;70359;51.420;7.032;2023-12-20T06:26:21;4;;;2.6;;
80910;SDS011;70359;51.420;7.032;2023-12-20T06:28:46;4;;;2.6;;
80910;SDS011;70359;51.420;7.032;2023-12-20T06:31:11;4.2;;;2.7;;
80910;SDS011;70359;51.420;7.032;2023-12-20T06:33:36;4.2;;;2.7;;
80910;SDS011;70359;51.420;7.032;2023-12-20T06:36:02;4.2;;;2.7;;
80910;SDS011;70359;51.420;7.032;2023-12-20T06:38:26;3.4;;;2.3;;
80910;SDS011;70359;51.420;7.032;2023-12-20T06:40:51;3.4;;;2.3;;
80910;SDS011;70359;51.420;7.032;2023-12-20T06:43:16;5;;;2.4;;
80910;SDS011;70359;51.420;7.032;2023-12-20T06:45:45;5;;;2.4;;
80910;SDS011;70359;51.420;7.032;2023-12-20T06:48:07;10.1;;;2.8;;
80910;SDS011;70359;51.420;7.032;2023-12-20T06:50:31;10.1;;;2.8;;
80910;SDS011;70359;51.420;7.032;2023-12-20T06:52:56;2.6;;;2;;
80910;SDS011;70359;51.420;7.032;2023-12-20T06:55:22;2.6;;;2;;
80910;SDS011;70359;51.420;7.032;2023-12-20T06:57:50;2.9;;;2.3;;
80910;SDS011;70359;51.420;7.032;2023-12-20T07:00:12;2.9;;;2.3;;
80910;SDS011;70359;51.420;7.032;2023-12-20T07:02:36;4.5;;;2.8;;
80910;SDS011;70359;51.420;7.032;2023-12-20T07:05:02;4.5;;;2.8;;
80910;SDS011;70359;51.420;7.032;2023-12-20T07:07:26;3.7;;;2.9;;
80910;SDS011;70359;51.420;7.032;2023-12-20T07:09:52;3.7;;;2.9;;
80910;SDS011;70359;51.420;7.032;2023-12-20T07:12:17;7.9;;;2.6;;
80910;SDS011;70359;51.420;7.032;2023-12-20T07:14:42;7.9;;;2.6;;
80910;SDS011;70359;51.420;7.032;2023-12-20T07:17:07;3.8;;;2.3;;
80910;SDS011;70359;51.420;7.032;2023-12-20T07:19:32;3.8;;;2.3;;
80910;SDS011;70359;51.420;7.032;2023-12-20T07:21:56;4;;;2.4;;
80910;SDS011;70359;51.420;7.032;2023-12-20T07:24:22;4;;;2.4;;
80910;SDS011;70359;51.420;7.032;2023-12-20T07:26:47;2.1;;;1.9;;
80910;SDS011;70359;51.420;7.032;2023-12-20T07:29:12;2.1;;;1.9;;
80910;SDS011;70359;51.420;7.032;2023-12-20T07:31:40;3.6;;;2.4;;
80910;SDS011;70359;51.420;7.032;2023-12-20T07:34:02;3.6;;;2.4;;
80910;SDS011;70359;51.420;7.032;2023-12-20T07:36:31;3.5;;;2.3;;
80910;SDS011;70359;51.420;7.032;2023-12-20T07:38:52;3.5;;;2.3;;
80910;SDS011;70359;51.420;7.032;2023-12-20T07:41:21;5.1;;;2.4;;
80910;SDS011;70359;51.420;7.032;2023-12-20T07:43:42;5.1;;;2.4;;
80910;SDS011;70359;51.420;7.032;2023-12-20T07:46:10;10.9;;;2.4;;
80910;SDS011;70359;51.420;7.032;2023-12-20T07:48:32;10.9;;;2.4;;
80910;SDS011;70359;51.420;7.032;2023-12-20T07:50:57;10.9;;;2.4;;
80910;SDS011;70359;51.420;7.032;2023-12-20T07:53:22;6.8;;;3.2;;
80910;SDS011;70359;51.420;7.032;2023-12-20T07:55:47;6.8;;;3.2;;
80910;SDS011;70359;51.420;7.032;2023-12-20T07:58:12;3.7;;;2.2;;
80910;SDS011;70359;51.420;7.032;2023-12-20T08:00:37;3.7;;;2.2;;
80910;SDS011;70359;51.420;7.032;2023-12-20T08:03:02;3.4;;;2.2;;
80910;SDS011;70359;51.420;7.032;2023-12-20T08:05:31;3.4;;;2.2;;
80910;SDS011;70359;51.420;7.032;2023-12-20T08:07:56;7;;;2.6;;
80910;SDS011;70359;51.420;7.032;2023-12-20T08:10:17;7;;;2.6;;
80910;SDS011;70359;51.420;7.032;2023-12-20T08:12:42;5.3;;;2.8;;
80910;SDS011;70359;51.420;7.032;2023-12-20T08:15:07;5.3;;;2.8;;
80910;SDS011;70359;51.420;7.032;2023-12-20T08:17:32;4.2;;;2.6;;
80910;SDS011;70359;51.420;7.032;2023-12-20T08:19:57;4.2;;;2.6;;
80910;SDS011;70359;51.420;7.032;2023-12-20T08:22:26;3.4;;;2.4;;
80910;SDS011;70359;51.420;7.032;2023-12-20T08:24:47;3.4;;;2.4;;
80910;SDS011;70359;51.420;7.032;2023-12-20T08:27:16;4.6;;;2.3;;
80910;SDS011;70359;51.420;7.032;2023-12-20T08:29:41;4.6;;;2.3;;
80910;SDS011;70359;51.420;7.032;2023-12-20T08:32:02;2.8;;;2.2;;
80910;SDS011;70359;51.420;7.032;2023-12-20T08:34:27;2.8;;;2.2;;
80910;SDS011;70359;51.420;7.032;2023-12-20T08:36:52;4.1;;;2.7;;
80910;SDS011;70359;51.420;7.032;2023-12-20T08:39:17;4.1;;;2.7;;
80910;SDS011;70359;51.420;7.032;2023-12-20T08:41:42;4.4;;;2.5;;
80910;SDS011;70359;51.420;7.032;2023-12-20T08:44:11;4.4;;;2.5;;
80910;SDS011;70359;51.420;7.032;2023-12-20T08:46:32;3.8;;;2.7;;
80910;SDS011;70359;51.420;7.032;2023-12-20T08:48:57;3.8;;;2.7;;
80910;SDS011;70359;51.420;7.032;2023-12-20T08:51:22;4.8;;;2.9;;
80910;SDS011;70359;51.420;7.032;2023-12-20T08:53:51;4.8;;;2.9;;
80910;SDS011;70359;51.420;7.032;2023-12-20T08:56:12;3;;;2.6;;
80910;SDS011;70359;51.420;7.032;2023-12-20T08:58:37;3;;;2.6;;
80910;SDS011;70359;51.420;7.032;2023-12-20T09:01:02;3;;;2.6;;
80910;SDS011;70359;51.420;7.032;2023-12-20T09:03:27;6.2;;;2.5;;
80910;SDS011;70359;51.420;7.032;2023-12-20T09:05:52;6.2;;;2.5;;
80910;SDS011;70359;51.420;7.032;2023-12-20T09:08:17;5.3;;;2.6;;
80910;SDS011;70359;51.420;7.032;2023-12-20T09:10:46;5.3;;;2.6;;
80910;SDS011;70359;51.420;7.032;2023-12-20T09:13:07;6.5;;;2.6;;
80910;SDS011;70359;51.420;7.032;2023-12-20T09:15:32;6.5;;;2.6;;
80910;SDS011;70359;51.420;7.032;2023-12-20T09:17:57;2.5;;;2;;
80910;SDS011;70359;51.420;7.032;2023-12-20T09:20:22;2.5;;;2;;
80910;SDS011;70359;51.420;7.032;2023-12-20T09:22:51;7.2;;;2.4;;
80910;SDS011;70359;51.420;7.032;2023-12-20T09:25:12;7.2;;;2.4;;
80910;SDS011;70359;51.420;7.032;2023-12-20T09:27:37;4.4;;;2.4;;
80910;SDS011;70359;51.420;7.032;2023-12-20T09:30:02;4.4;;;2.4;;
80910;SDS011;70359;51.420;7.032;2023-12-20T09:32:27;5;;;2.1;;
80910;SDS011;70359;51.420;7.032;2023-12-20T09:34:52;5;;;2.1;;
80910;SDS011;70359;51.420;7.032;2023-12-20T09:37:21;4.1;;;1.8;;
80910;SDS011;70359;51.420;7.032;2023-12-20T09:39:42;4.1;;;1.8;;
80910;SDS011;70359;51.420;7.032;2023-12-20T09:42:07;5.1;;;2.1;;
80910;SDS011;70359;51.420;7.032;2023-12-20T09:44:32;5.1;;;2.1;;
80910;SDS011;70359;51.420;7.032;2023-12-20T09:46:57;12.3;;;2.3;;
80910;SDS011;70359;51.420;7.032;2023-12-20T09:49:22;12.3;;;2.3;;
80910;SDS011;70359;51.420;7.032;2023-12-20T09:51:47;3.2;;;2;;
80910;SDS011;70359;51.420;7.032;2023-12-20T09:54:17;3.2;;;2;;
80910;SDS011;70359;51.420;7.032;2023-12-20T09:56:37;4.6;;;2.1;;
80910;SDS011;70359;51.420;7.032;2023-12-20T09:59:02;4.6;;;2.1;;
80910;SDS011;70359;51.420;7.032;2023-12-20T10:01:28;1.7;;;1.5;;
80910;SDS011;70359;51.420;7.032;2023-12-20T10:03:54;1.7;;;1.5;;
80910;SDS011;70359;51.420;7.032;2023-12-20T10:06:17;4.2;;;2;;
80910;SDS011;70359;51.420;7.032;2023-12-20T10:08:42;4.2;;;2;;
80910;SDS011;70359;51.420;7.032;2023-12-20T10:11:07;3.8;;;2.4;;
80910;SDS011;70359;51.420;7.032;2023-12-20T10:13:32;3.8;;;2.4;;
80910;SDS011;70359;51.420;7.032;2023-12-20T10:15:57;3.8;;;2.4;;
80910;SDS011;70359;51.420;7.032;2023-12-20T10:18:22;1.9;;;1.7;;
80910;SDS011;70359;51.420;7.032;2023-12-20T10:20:47;1.9;;;1.7;;
80910;SDS011;70359;51.420;7.032;2023-12-20T10:23:16;3;;;2.1;;
80910;SDS011;70359;51.420;7.032;2023-12-20T10:25:41;3;;;2.1;;
80910;SDS011;70359;51.420;7.032;2023-12-20T10:28:15;4.1;;;2;;
80910;SDS011;70359;51.420;7.032;2023-12-20T10:30:27;4.1;;;2;;
80910;SDS011;70359;51.420;7.032;2023-12-20T10:32:52;2.5;;;2.1;;
80910;SDS011;70359;51.420;7.032;2023-12-20T10:35:21;2.5;;;2.1;;
80910;SDS011;70359;51.420;7.032;2023-12-20T10:37:42;4.3;;;1.6;;
80910;SDS011;70359;51.420;7.032;2023-12-20T10:40:08;4.3;;;1.6;;
80910;SDS011;70359;51.420;7.032;2023-12-20T10:42:32;2.8;;;1.8;;
80910;SDS011;70359;51.420;7.032;2023-12-20T10:44:59;2.8;;;1.8;;
80910;SDS011;70359;51.420;7.032;2023-12-20T10:47:22;15.2;;;2.3;;
80910;SDS011;70359;51.420;7.032;2023-12-20T10:49:47;15.2;;;2.3;;
80910;SDS011;70359;51.420;7.032;2023-12-20T10:52:12;5.6;;;2.1;;
80910;SDS011;70359;51.420;7.032;2023-12-20T10:54:37;5.6;;;2.1;;
80910;SDS011;70359;51.420;7.032;2023-12-20T10:57:05;4.3;;;2;;
80910;SDS011;70359;51.420;7.032;2023-12-20T10:59:29;4.3;;;2;;
80910;SDS011;70359;51.420;7.032;2023-12-20T11:01:54;6.6;;;2.2;;
80910;SDS011;70359;51.420;7.032;2023-12-20T11:04:22;6.6;;;2.2;;
80910;SDS011;70359;51.420;7.032;2023-12-20T11:06:45;4.5;;;2.2;;
80910;SDS011;70359;51.420;7.032;2023-12-20T11:09:12;4.5;;;2.2;;
80910;SDS011;70359;51.420;7.032;2023-12-20T11:11:35;3.1;;;2;;
80910;SDS011;70359;51.420;7.032;2023-12-20T11:14:01;3.1;;;2;;
80910;SDS011;70359;51.420;7.032;2023-12-20T11:16:22;10.1;;;2.5;;
80910;SDS011;70359;51.420;7.032;2023-12-20T11:18:51;10.1;;;2.5;;
80910;SDS011;70359;51.420;7.032;2023-12-20T11:21:24;2.8;;;1.9;;
80910;SDS011;70359;51.420;7.032;2023-12-20T11:23:37;2.8;;;1.9;;
80910;SDS011;70359;51.420;7.032;2023-12-20T11:26:03;2.8;;;1.9;;
80910;SDS011;70359;51.420;7.032;2023-12-20T11:28:27;3;;;2;;
80910;SDS011;70359;51.420;7.032;2023-12-20T11:30:54;3;;;2;;
80910;SDS011;70359;51.420;7.032;2023-12-20T11:33:21;4;;;2;;
80910;SDS011;70359;51.420;7.032;2023-12-20T11:35:42;4;;;2;;
80910;SDS011;70359;51.420;7.032;2023-12-20T11:38:12;2.2;;;1.7;;
80910;SDS011;70359;51.420;7.032;2023-12-20T11:40:33;2.2;;;1.7;;
80910;SDS011;70359;51.420;7.032;2023-12-20T11:42:57;4.1;;;2.1;;
80910;SDS011;70359;51.420;7.032;2023-12-20T11:45:24;4.1;;;2.1;;
80910;SDS011;70359;51.420;7.032;2023-12-20T11:47:48;3.5;;;1.9;;
80910;SDS011;70359;51.420;7.032;2023-12-20T11:50:16;3.5;;;1.9;;
80910;SDS011;70359;51.420;7.032;2023-12-20T11:52:37;4.6;;;2.1;;
80910;SDS011;70359;51.420;7.032;2023-12-20T11:55:02;4.6;;;2.1;;
80910;SDS011;70359;51.420;7.032;2023-12-20T11:57:27;7.3;;;2.7;;
80910;SDS011;70359;51.420;7.032;2023-12-20T11:59:52;7.3;;;2.7;;
80910;SDS011;70359;51.420;7.032;2023-12-20T12:02:17;3.4;;;1.9;;
80910;SDS011;70359;51.420;7.032;2023-12-20T12:04:42;3.4;;;1.9;;
80910;SDS011;70359;51.420;7.032;2023-12-20T12:07:07;4.3;;;2.2;;
80910;SDS011;70359;51.420;7.032;2023-12-20T12:09:32;4.3;;;2.2;;
80910;SDS011;70359;51.420;7.032;2023-12-20T12:11:57;4.3;;;1.9;;
80910;SDS011;70359;51.420;7.032;2023-12-20T12:14:22;4.3;;;1.9;;
80910;SDS011;70359;51.420;7.032;2023-12-20T12:16:51;3.2;;;2.1;;
80910;SDS011;70359;51.420;7.032;2023-12-20T12:19:20;3.2;;;2.1;;
80910;SDS011;70359;51.420;7.032;2023-12-20T12:21:41;2;;;1.8;;
80910;SDS011;70359;51.420;7.032;2023-12-20T12:24:10;2;;;1.8;;
80910;SDS011;70359;51.420;7.032;2023-12-20T12:26:29;2.8;;;1.8;;
80910;SDS011;70359;51.420;7.032;2023-12-20T12:28:52;2.8;;;1.8;;
80910;SDS011;70359;51.420;7.032;2023-12-20T12:31:17;3.2;;;2.3;;
80910;SDS011;70359;51.420;7.032;2023-12-20T12:33:42;3.2;;;2.3;;
80910;SDS011;70359;51.420;7.032;2023-12-20T12:36:11;2.5;;;2;;
80910;SDS011;70359;51.420;7.032;2023-12-20T12:38:32;2.5;;;2;;
80910;SDS011;70359;51.420;7.032;2023-12-20T12:40:57;2.5;;;2;;
80910;SDS011;70359;51.420;7.032;2023-12-20T12:43:22;3.7;;;2.2;;
80910;SDS011;70359;51.420;7.032;2023-12-20T12:45:47;3.7;;;2.2;;
80910;SDS011;70359;51.420;7.032;2023-12-20T12:48:17;2.6;;;1.7;;
80910;SDS011;70359;51.420;7.032;2023-12-20T12:50:41;2.6;;;1.7;;
80910;SDS011;70359;51.420;7.032;2023-12-20T12:53:02;3;;;2.1;;
80910;SDS011;70359;51.420;7.032;2023-12-20T12:55:27;3;;;2.1;;
80910;SDS011;70359;51.420;7.032;2023-12-20T12:57:52;3.9;;;1.8;;
80910;SDS011;70359;51.420;7.032;2023-12-20T13:00:18;3.9;;;1.8;;
80910;SDS011;70359;51.420;7.032;2023-12-20T13:02:42;4.4;;;1.9;;
80910;SDS011;70359;51.420;7.032;2023-12-20T13:05:12;4.4;;;1.9;;
80910;SDS011;70359;51.420;7.032;2023-12-20T13:07:32;2.3;;;2;;
80910;SDS011;70359;51.420;7.032;2023-12-20T13:10:04;2.3;;;2;;
80910;SDS011;70359;51.420;7.032;2023-12-20T13:12:22;11.9;;;2.4;;
80910;SDS011;70359;51.420;7.032;2023-12-20T13:14:47;11.9;;;2.4;;
80910;SDS011;70359;51.420;7.032;2023-12-20T13:17:16;2.9;;;2.3;;
80910;SDS011;70359;51.420;7.032;2023-12-20T13:19:41;2.9;;;2.3;;
80910;SDS011;70359;51.420;7.032;2023-12-20T13:22:02;1.8;;;1.6;;
80910;SDS011;70359;51.420;7.032;2023-12-20T13:24:27;1.8;;;1.6;;
80910;SDS011;70359;51.420;7.032;2023-12-20T13:26:52;2.7;;;2;;
80910;SDS011;70359;51.420;7.032;2023-12-20T13:29:17;2.7;;;2;;
80910;SDS011;70359;51.420;7.032;2023-12-20T13:31:42;3.5;;;2;;
80910;SDS011;70359;51.420;7.032;2023-12-20T13:34:11;3.5;;;2;;
80910;SDS011;70359;51.420;7.032;2023-12-20T13:36:36;1.9;;;1.8;;
80910;SDS011;70359;51.420;7.032;2023-12-20T13:38:57;1.9;;;1.8;;
80910;SDS011;70359;51.420;7.032;2023-12-20T13:41:22;1.9;;;1.7;;
80910;SDS011;70359;51.420;7.032;2023-12-20T13:43:47;1.9;;;1.7;;
80910;SDS011;70359;51.420;7.032;2023-12-20T13:46:16;1.7;;;1.4;;
80910;SDS011;70359;51.420;7.032;2023-12-20T13:48:37;1.7;;;1.4;;
80910;SDS011;70359;51.420;7.032;2023-12-20T13:51:03;1.7;;;1.4;;
80910;SDS011;70359;51.420;7.032;2023-12-20T13:53:31;4.7;;;2.1;;
80910;SDS011;70359;51.420;7.032;2023-12-20T13:55:52;4.7;;;2.1;;
80910;SDS011;70359;51.420;7.032;2023-12-20T13:58:17;2.3;;;2;;
80910;SDS011;70359;51.420;7.032;2023-12-20T14:00:42;2.3;;;2;;
80910;SDS011;70359;51.420;7.032;2023-12-20T14:03:08;3.7;;;2.2;;
80910;SDS011;70359;51.420;7.032;2023-12-20T14:05:32;3.7;;;2.2;;
80910;SDS011;70359;51.420;7.032;2023-12-20T14:07:57;8.8;;;2.2;;
80910;SDS011;70359;51.420;7.032;2023-12-20T14:10:23;8.8;;;2.2;;
80910;SDS011;70359;51.420;7.032;2023-12-20T14:12:51;2.2;;;2;;
80910;SDS011;70359;51.420;7.032;2023-12-20T14:15:13;2.2;;;2;;
80910;SDS011;70359;51.420;7.032;2023-12-20T14:17:37;5.1;;;2.6;;
80910;SDS011;70359;51.420;7.032;2023-12-20T14:20:03;5.1;;;2.6;;
80910;SDS011;70359;51.420;7.032;2023-12-20T14:22:27;4.7;;;2.3;;
80910;SDS011;70359;51.420;7.032;2023-12-20T14:24:52;4.7;;;2.3;;
80910;SDS011;70359;51.420;7.032;2023-12-20T14:27:17;5.4;;;2.4;;
80910;SDS011;70359;51.420;7.032;2023-12-20T14:29:42;5.4;;;2.4;;
80910;SDS011;70359;51.420;7.032;2023-12-20T14:32:08;2.4;;;2.2;;
80910;SDS011;70359;51.420;7.032;2023-12-20T14:34:32;2.4;;;2.2;;
80910;SDS011;70359;51.420;7.032;2023-12-20T14:36:57;2.6;;;2.4;;
80910;SDS011;70359;51.420;7.032;2023-12-20T14:39:22;2.6;;;2.4;;
80910;SDS011;70359;51.420;7.032;2023-12-20T14:41:47;2.9;;;2.4;;
80910;SDS011;70359;51.420;7.032;2023-12-20T14:44:12;2.9;;;2.4;;
80910;SDS011;70359;51.420;7.032;2023-12-20T14:46:37;3;;;2.2;;
80910;SDS011;70359;51.420;7.032;2023-12-20T14:49:02;3;;;2.2;;
80910;SDS011;70359;51.420;7.032;2023-12-20T14:51:27;5.1;;;2.9;;
80910;SDS011;70359;51.420;7.032;2023-12-20T14:53:52;5.1;;;2.9;;
80910;SDS011;70359;51.420;7.032;2023-12-20T14:56:17;2.9;;;2.6;;
80910;SDS011;70359;51.420;7.032;2023-12-20T14:58:43;2.9;;;2.6;;
80910;SDS011;70359;51.420;7.032;2023-12-20T15:01:11;2.5;;;2.3;;
80910;SDS011;70359;51.420;7.032;2023-12-20T15:03:32;2.5;;;2.3;;
80910;SDS011;70359;51.420;7.032;2023-12-20T15:05:57;2.5;;;2.3;;